sensor_id;sensor_type;location;lat;lon;timestamp;P1;durP1;ratioP1;P2;durP2;ratioP2
4047;SDS011;2038;51.728;6.674;2023-12-20T00:01:49;11.87;;;6.60;;
4047;SDS011;2038;51.728;6.674;2023-12-20T00:04:16;11.70;;;6.37;;
4047;SDS011;2038;51.728;6.674;2023-12-20T00:06:42;15.83;;;5.93;;
4047;SDS011;2038;51.728;6.674;2023-12-20T00:09:09;10.03;;;6.53;;
4047;SDS011;2038;51.728;6.674;2023-12-20T00:11:35;8.37;;;5.53;;
4047;SDS011;2038;51.728;6.674;2023-12-20T00:14:01;11.93;;;5.93;;
4047;SDS011;2038;51.728;6.674;2023-12-20T00:16:28;13.13;;;6.27;;
4047;SDS011;2038;51.728;6.674;2023-12-20T00:18:54;14.97;;;6.00;;
4047;SDS011;2038;51.728;6.674;2023-12-20T00:21:20;13.33;;;7.20;;
4047;SDS011;2038;51.728;6.674;2023-12-20T00:23:47;10.40;;;5.10;;
4047;SDS011;2038;51.728;6.674;2023-12-20T00:26:13;20.13;;;6.63;;
4047;SDS011;2038;51.728;6.674;2023-12-20T00:28:39;16.80;;;6.20;;
4047;SDS011;2038;51.728;6.674;2023-12-20T00:31:05;10.60;;;5.37;;
4047;SDS011;2038;51.728;6.674;2023-12-20T00:33:32;11.33;;;5.33;;
4047;SDS011;2038;51.728;6.674;2023-12-20T00:35:58;11.10;;;6.53;;
4047;SDS011;2038;51.728;6.674;2023-12-20T00:38:25;12.80;;;6.20;;
4047;SDS011;2038;51.728;6.674;2023-12-20T00:40:51;8.93;;;5.70;;
4047;SDS011;2038;51.728;6.674;2023-12-20T00:43:18;14.57;;;7.07;;
4047;SDS011;2038;51.728;6.674;2023-12-20T00:45:44;15.17;;;6.30;;
4047;SDS011;2038;51.728;6.674;2023-12-20T00:48:10;16.57;;;7.40;;
4047;SDS011;2038;51.728;6.674;2023-12-20T00:50:37;19.13;;;6.57;;
4047;SDS011;2038;51.728;6.674;2023-12-20T00:53:03;13.23;;;6.37;;
4047;SDS011;2038;51.728;6.674;2023-12-20T00:55:30;14.07;;;7.60;;
4047;SDS011;2038;51.728;6.674;2023-12-20T00:57:57;14.77;;;6.90;;
4047;SDS011;2038;51.728;6.674;2023-12-20T01:00:24;21.30;;;9.83;;
4047;SDS011;2038;51.728;6.674;2023-12-20T01:02:50;12.03;;;6.93;;
4047;SDS011;2038;51.728;6.674;2023-12-20T01:05:20;15.23;;;7.53;;
4047;SDS011;2038;51.728;6.674;2023-12-20T01:07:49;17.70;;;7.70;;
4047;SDS011;2038;51.728;6.674;2023-12-20T01:10:15;15.83;;;7.23;;
4047;SDS011;2038;51.728;6.674;2023-12-20T01:12:42;21.43;;;8.77;;
4047;SDS011;2038;51.728;6.674;2023-12-20T01:15:09;12.83;;;7.27;;
4047;SDS011;2038;51.728;6.674;2023-12-20T01:17:35;14.10;;;8.30;;
4047;SDS011;2038;51.728;6.674;2023-12-20T01:20:02;11.20;;;8.00;;
4047;SDS011;2038;51.728;6.674;2023-12-20T01:22:28;16.77;;;7.20;;
4047;SDS011;2038;51.728;6.674;2023-12-20T01:24:55;20.57;;;7.43;;
4047;SDS011;2038;51.728;6.674;2023-12-20T01:27:21;29.70;;;8.83;;
4047;SDS011;2038;51.728;6.674;2023-12-20T01:29:47;15.63;;;7.07;;
4047;SDS011;2038;51.728;6.674;2023-12-20T01:32:14;17.37;;;6.70;;
4047;SDS011;2038;51.728;6.674;2023-12-20T01:34:40;17.17;;;8.23;;
4047;SDS011;2038;51.728;6.674;2023-12-20T01:37:07;15.73;;;7.97;;
4047;SDS011;2038;51.728;6.674;2023-12-20T01:39:33;13.23;;;7.13;;
4047;SDS011;2038;51.728;6.674;2023-12-20T01:41:59;13.00;;;7.40;;
4047;SDS011;2038;51.728;6.674;2023-12-20T01:44:26;24.90;;;7.13;;
4047;SDS011;2038;51.728;6.674;2023-12-20T01:46:52;17.07;;;6.60;;
4047;SDS011;2038;51.728;6.674;2023-12-20T01:49:19;26.23;;;8.00;;
4047;SDS011;2038;51.728;6.674;2023-12-20T01:51:46;23.77;;;6.60;;
4047;SDS011;2038;51.728;6.674;2023-12-20T01:54:13;17.63;;;7.67;;
4047;SDS011;2038;51.728;6.674;2023-12-20T01:56:43;18.90;;;7.97;;
4047;SDS011;2038;51.728;6.674;2023-12-20T01:59:09;16.23;;;8.73;;
4047;SDS011;2038;51.728;6.674;2023-12-20T02:01:36;31.60;;;8.37;;
4047;SDS011;2038;51.728;6.674;2023-12-20T02:04:03;20.93;;;8.33;;
4047;SDS011;2038;51.728;6.674;2023-12-20T02:06:30;18.90;;;8.80;;
4047;SDS011;2038;51.728;6.674;2023-12-20T02:08:59;12.70;;;8.20;;
4047;SDS011;2038;51.728;6.674;2023-12-20T02:11:25;21.27;;;8.97;;
4047;SDS011;2038;51.728;6.674;2023-12-20T02:13:53;20.13;;;7.40;;
4047;SDS011;2038;51.728;6.674;2023-12-20T02:16:20;28.47;;;8.57;;
4047;SDS011;2038;51.728;6.674;2023-12-20T02:18:47;21.10;;;8.17;;
4047;SDS011;2038;51.728;6.674;2023-12-20T02:21:13;18.33;;;6.43;;
4047;SDS011;2038;51.728;6.674;2023-12-20T02:23:40;15.93;;;7.70;;
4047;SDS011;2038;51.728;6.674;2023-12-20T02:26:07;22.53;;;8.53;;
4047;SDS011;2038;51.728;6.674;2023-12-20T02:28:33;20.73;;;7.80;;
4047;SDS011;2038;51.728;6.674;2023-12-20T02:31:00;18.77;;;7.50;;
4047;SDS011;2038;51.728;6.674;2023-12-20T02:33:27;28.53;;;7.83;;
4047;SDS011;2038;51.728;6.674;2023-12-20T02:35:54;29.23;;;8.10;;
4047;SDS011;2038;51.728;6.674;2023-12-20T02:38:20;20.13;;;7.57;;
4047;SDS011;2038;51.728;6.674;2023-12-20T02:40:46;22.57;;;8.37;;
4047;SDS011;2038;51.728;6.674;2023-12-20T02:43:13;16.47;;;7.50;;
4047;SDS011;2038;51.728;6.674;2023-12-20T02:45:39;18.50;;;7.27;;
4047;SDS011;2038;51.728;6.674;2023-12-20T02:48:05;21.30;;;7.90;;
4047;SDS011;2038;51.728;6.674;2023-12-20T02:50:32;22.17;;;8.70;;
4047;SDS011;2038;51.728;6.674;2023-12-20T02:52:58;22.60;;;10.00;;
4047;SDS011;2038;51.728;6.674;2023-12-20T02:55:25;19.53;;;8.70;;
4047;SDS011;2038;51.728;6.674;2023-12-20T02:57:51;21.33;;;8.43;;
4047;SDS011;2038;51.728;6.674;2023-12-20T03:00:17;17.93;;;7.97;;
4047;SDS011;2038;51.728;6.674;2023-12-20T03:02:44;30.70;;;8.60;;
4047;SDS011;2038;51.728;6.674;2023-12-20T03:05:10;19.43;;;8.40;;
4047;SDS011;2038;51.728;6.674;2023-12-20T03:07:39;20.00;;;8.20;;
4047;SDS011;2038;51.728;6.674;2023-12-20T03:10:06;22.50;;;9.20;;
4047;SDS011;2038;51.728;6.674;2023-12-20T03:12:34;32.20;;;10.80;;
4047;SDS011;2038;51.728;6.674;2023-12-20T03:15:00;25.70;;;9.20;;
4047;SDS011;2038;51.728;6.674;2023-12-20T03:17:27;26.70;;;9.93;;
4047;SDS011;2038;51.728;6.674;2023-12-20T03:19:53;25.43;;;9.40;;
4047;SDS011;2038;51.728;6.674;2023-12-20T03:22:19;29.57;;;9.10;;
4047;SDS011;2038;51.728;6.674;2023-12-20T03:24:45;19.97;;;9.90;;
4047;SDS011;2038;51.728;6.674;2023-12-20T03:27:12;30.77;;;10.20;;
4047;SDS011;2038;51.728;6.674;2023-12-20T03:29:38;26.27;;;8.87;;
4047;SDS011;2038;51.728;6.674;2023-12-20T03:32:04;19.60;;;9.60;;
4047;SDS011;2038;51.728;6.674;2023-12-20T03:34:31;22.47;;;9.00;;
4047;SDS011;2038;51.728;6.674;2023-12-20T03:36:57;33.27;;;9.20;;
4047;SDS011;2038;51.728;6.674;2023-12-20T03:39:23;20.07;;;8.40;;
4047;SDS011;2038;51.728;6.674;2023-12-20T03:41:50;15.77;;;8.00;;
4047;SDS011;2038;51.728;6.674;2023-12-20T03:44:16;23.93;;;7.60;;
4047;SDS011;2038;51.728;6.674;2023-12-20T03:46:42;22.37;;;8.00;;
4047;SDS011;2038;51.728;6.674;2023-12-20T03:49:10;28.13;;;8.27;;
4047;SDS011;2038;51.728;6.674;2023-12-20T03:51:37;18.17;;;7.53;;
4047;SDS011;2038;51.728;6.674;2023-12-20T03:54:03;46.00;;;7.70;;
4047;SDS011;2038;51.728;6.674;2023-12-20T03:56:29;28.07;;;8.50;;
4047;SDS011;2038;51.728;6.674;2023-12-20T03:58:56;19.53;;;8.17;;
4047;SDS011;2038;51.728;6.674;2023-12-20T04:01:22;17.37;;;6.63;;
4047;SDS011;2038;51.728;6.674;2023-12-20T04:03:48;20.40;;;8.00;;
4047;SDS011;2038;51.728;6.674;2023-12-20T04:06:18;17.60;;;7.37;;
4047;SDS011;2038;51.728;6.674;2023-12-20T04:08:44;17.53;;;5.93;;
4047;SDS011;2038;51.728;6.674;2023-12-20T04:11:10;13.53;;;6.10;;
4047;SDS011;2038;51.728;6.674;2023-12-20T04:13:37;14.20;;;5.40;;
4047;SDS011;2038;51.728;6.674;2023-12-20T04:16:03;17.90;;;7.37;;
4047;SDS011;2038;51.728;6.674;2023-12-20T04:18:30;23.70;;;7.23;;
4047;SDS011;2038;51.728;6.674;2023-12-20T04:20:57;28.73;;;6.90;;
4047;SDS011;2038;51.728;6.674;2023-12-20T04:23:23;19.23;;;6.70;;
4047;SDS011;2038;51.728;6.674;2023-12-20T04:25:50;21.23;;;6.57;;
4047;SDS011;2038;51.728;6.674;2023-12-20T04:28:16;30.20;;;7.53;;
4047;SDS011;2038;51.728;6.674;2023-12-20T04:30:42;22.83;;;7.47;;
4047;SDS011;2038;51.728;6.674;2023-12-20T04:33:08;13.30;;;6.20;;
4047;SDS011;2038;51.728;6.674;2023-12-20T04:35:35;18.00;;;6.20;;
4047;SDS011;2038;51.728;6.674;2023-12-20T04:38:01;18.60;;;6.20;;
4047;SDS011;2038;51.728;6.674;2023-12-20T04:40:28;17.63;;;7.13;;
4047;SDS011;2038;51.728;6.674;2023-12-20T04:42:54;12.80;;;5.53;;
4047;SDS011;2038;51.728;6.674;2023-12-20T04:45:20;13.50;;;5.37;;
4047;SDS011;2038;51.728;6.674;2023-12-20T04:47:48;13.33;;;5.33;;
4047;SDS011;2038;51.728;6.674;2023-12-20T04:50:14;19.87;;;6.20;;
4047;SDS011;2038;51.728;6.674;2023-12-20T04:52:41;26.17;;;6.10;;
4047;SDS011;2038;51.728;6.674;2023-12-20T04:55:08;23.53;;;6.47;;
4047;SDS011;2038;51.728;6.674;2023-12-20T04:57:35;29.03;;;6.40;;
4047;SDS011;2038;51.728;6.674;2023-12-20T05:00:01;10.50;;;5.70;;
4047;SDS011;2038;51.728;6.674;2023-12-20T05:02:28;13.80;;;5.93;;
4047;SDS011;2038;51.728;6.674;2023-12-20T05:04:54;12.93;;;6.53;;
4047;SDS011;2038;51.728;6.674;2023-12-20T05:07:21;16.47;;;6.07;;
4047;SDS011;2038;51.728;6.674;2023-12-20T05:09:47;23.10;;;6.73;;
4047;SDS011;2038;51.728;6.674;2023-12-20T05:12:13;28.60;;;6.83;;
4047;SDS011;2038;51.728;6.674;2023-12-20T05:14:40;14.20;;;5.93;;
4047;SDS011;2038;51.728;6.674;2023-12-20T05:17:06;21.23;;;7.60;;
4047;SDS011;2038;51.728;6.674;2023-12-20T05:19:33;21.73;;;5.70;;
4047;SDS011;2038;51.728;6.674;2023-12-20T05:22:02;26.07;;;6.23;;
4047;SDS011;2038;51.728;6.674;2023-12-20T05:24:28;22.33;;;6.53;;
4047;SDS011;2038;51.728;6.674;2023-12-20T05:26:54;19.03;;;6.40;;
4047;SDS011;2038;51.728;6.674;2023-12-20T05:29:21;23.17;;;6.57;;
4047;SDS011;2038;51.728;6.674;2023-12-20T05:31:47;18.03;;;5.70;;
4047;SDS011;2038;51.728;6.674;2023-12-20T05:34:13;24.53;;;7.27;;
4047;SDS011;2038;51.728;6.674;2023-12-20T05:36:40;17.37;;;6.10;;
4047;SDS011;2038;51.728;6.674;2023-12-20T05:39:06;34.90;;;8.67;;
4047;SDS011;2038;51.728;6.674;2023-12-20T05:41:32;12.80;;;5.73;;
4047;SDS011;2038;51.728;6.674;2023-12-20T05:43:59;21.90;;;7.30;;
4047;SDS011;2038;51.728;6.674;2023-12-20T05:46:26;24.00;;;7.10;;
4047;SDS011;2038;51.728;6.674;2023-12-20T05:48:52;32.23;;;7.40;;
4047;SDS011;2038;51.728;6.674;2023-12-20T05:51:18;18.50;;;6.40;;
4047;SDS011;2038;51.728;6.674;2023-12-20T05:53:45;25.43;;;6.40;;
4047;SDS011;2038;51.728;6.674;2023-12-20T05:56:11;22.27;;;7.17;;
4047;SDS011;2038;51.728;6.674;2023-12-20T05:58:38;24.33;;;7.23;;
4047;SDS011;2038;51.728;6.674;2023-12-20T06:01:06;29.40;;;7.00;;
4047;SDS011;2038;51.728;6.674;2023-12-20T06:03:33;21.63;;;7.20;;
4047;SDS011;2038;51.728;6.674;2023-12-20T06:06:04;22.77;;;8.20;;
4047;SDS011;2038;51.728;6.674;2023-12-20T06:08:38;12.90;;;6.83;;
4047;SDS011;2038;51.728;6.674;2023-12-20T06:11:05;23.97;;;7.40;;
4047;SDS011;2038;51.728;6.674;2023-12-20T06:13:32;22.53;;;7.27;;
4047;SDS011;2038;51.728;6.674;2023-12-20T06:15:59;29.20;;;9.90;;
4047;SDS011;2038;51.728;6.674;2023-12-20T06:18:30;22.17;;;7.07;;
4047;SDS011;2038;51.728;6.674;2023-12-20T06:20:57;29.43;;;7.50;;
4047;SDS011;2038;51.728;6.674;2023-12-20T06:23:26;40.23;;;8.00;;
4047;SDS011;2038;51.728;6.674;2023-12-20T06:25:53;14.00;;;7.10;;
4047;SDS011;2038;51.728;6.674;2023-12-20T06:28:19;27.73;;;7.50;;
4047;SDS011;2038;51.728;6.674;2023-12-20T06:30:45;37.93;;;9.40;;
4047;SDS011;2038;51.728;6.674;2023-12-20T06:33:14;27.57;;;10.00;;
4047;SDS011;2038;51.728;6.674;2023-12-20T06:35:40;23.33;;;10.00;;
4047;SDS011;2038;51.728;6.674;2023-12-20T06:38:07;19.40;;;8.57;;
4047;SDS011;2038;51.728;6.674;2023-12-20T06:40:34;21.87;;;10.27;;
4047;SDS011;2038;51.728;6.674;2023-12-20T06:43:00;37.47;;;8.93;;
4047;SDS011;2038;51.728;6.674;2023-12-20T06:45:27;17.97;;;9.90;;
4047;SDS011;2038;51.728;6.674;2023-12-20T06:47:53;19.57;;;8.03;;
4047;SDS011;2038;51.728;6.674;2023-12-20T06:50:20;33.03;;;9.13;;
4047;SDS011;2038;51.728;6.674;2023-12-20T06:52:46;32.57;;;10.77;;
4047;SDS011;2038;51.728;6.674;2023-12-20T06:55:13;40.53;;;10.53;;
4047;SDS011;2038;51.728;6.674;2023-12-20T06:57:39;22.30;;;8.73;;
4047;SDS011;2038;51.728;6.674;2023-12-20T07:00:06;29.30;;;8.17;;
4047;SDS011;2038;51.728;6.674;2023-12-20T07:02:33;24.83;;;9.43;;
4047;SDS011;2038;51.728;6.674;2023-12-20T07:05:00;28.17;;;8.47;;
4047;SDS011;2038;51.728;6.674;2023-12-20T07:07:26;33.97;;;10.43;;
4047;SDS011;2038;51.728;6.674;2023-12-20T07:09:52;26.40;;;7.60;;
4047;SDS011;2038;51.728;6.674;2023-12-20T07:12:19;27.33;;;9.17;;
4047;SDS011;2038;51.728;6.674;2023-12-20T07:14:48;17.40;;;8.00;;
4047;SDS011;2038;51.728;6.674;2023-12-20T07:17:14;26.97;;;9.23;;
4047;SDS011;2038;51.728;6.674;2023-12-20T07:19:41;37.43;;;9.20;;
4047;SDS011;2038;51.728;6.674;2023-12-20T07:22:08;21.07;;;8.60;;
4047;SDS011;2038;51.728;6.674;2023-12-20T07:24:34;31.27;;;9.07;;
4047;SDS011;2038;51.728;6.674;2023-12-20T07:27:00;24.37;;;9.43;;
4047;SDS011;2038;51.728;6.674;2023-12-20T07:29:27;27.87;;;8.70;;
4047;SDS011;2038;51.728;6.674;2023-12-20T07:31:53;26.00;;;8.30;;
4047;SDS011;2038;51.728;6.674;2023-12-20T07:34:20;31.80;;;7.93;;
4047;SDS011;2038;51.728;6.674;2023-12-20T07:36:46;25.07;;;8.07;;
4047;SDS011;2038;51.728;6.674;2023-12-20T07:39:13;21.80;;;7.73;;
4047;SDS011;2038;51.728;6.674;2023-12-20T07:41:40;23.87;;;7.43;;
4047;SDS011;2038;51.728;6.674;2023-12-20T07:44:06;22.23;;;7.97;;
4047;SDS011;2038;51.728;6.674;2023-12-20T07:46:32;31.50;;;8.83;;
4047;SDS011;2038;51.728;6.674;2023-12-20T07:48:59;21.43;;;9.23;;
4047;SDS011;2038;51.728;6.674;2023-12-20T07:51:25;20.00;;;7.20;;
4047;SDS011;2038;51.728;6.674;2023-12-20T07:53:52;17.63;;;6.87;;
4047;SDS011;2038;51.728;6.674;2023-12-20T07:56:19;17.47;;;7.40;;
4047;SDS011;2038;51.728;6.674;2023-12-20T07:58:46;25.87;;;8.50;;
4047;SDS011;2038;51.728;6.674;2023-12-20T08:01:13;26.30;;;8.80;;
4047;SDS011;2038;51.728;6.674;2023-12-20T08:03:42;20.50;;;7.87;;
4047;SDS011;2038;51.728;6.674;2023-12-20T08:06:08;26.23;;;8.40;;
4047;SDS011;2038;51.728;6.674;2023-12-20T08:08:34;26.13;;;8.97;;
4047;SDS011;2038;51.728;6.674;2023-12-20T08:11:01;21.80;;;7.80;;
4047;SDS011;2038;51.728;6.674;2023-12-20T08:13:28;18.53;;;8.53;;
4047;SDS011;2038;51.728;6.674;2023-12-20T08:15:54;32.93;;;8.83;;
4047;SDS011;2038;51.728;6.674;2023-12-20T08:18:21;20.70;;;7.70;;
4047;SDS011;2038;51.728;6.674;2023-12-20T08:20:48;23.77;;;8.37;;
4047;SDS011;2038;51.728;6.674;2023-12-20T08:23:15;29.90;;;9.57;;
4047;SDS011;2038;51.728;6.674;2023-12-20T08:25:41;30.73;;;9.60;;
4047;SDS011;2038;51.728;6.674;2023-12-20T08:28:07;24.60;;;10.27;;
4047;SDS011;2038;51.728;6.674;2023-12-20T08:30:34;16.83;;;7.00;;
4047;SDS011;2038;51.728;6.674;2023-12-20T08:33:00;26.17;;;7.57;;
4047;SDS011;2038;51.728;6.674;2023-12-20T08:35:27;21.93;;;8.47;;
4047;SDS011;2038;51.728;6.674;2023-12-20T08:37:53;27.77;;;7.07;;
4047;SDS011;2038;51.728;6.674;2023-12-20T08:40:20;29.60;;;9.07;;
4047;SDS011;2038;51.728;6.674;2023-12-20T08:42:47;22.53;;;8.70;;
4047;SDS011;2038;51.728;6.674;2023-12-20T08:45:13;29.53;;;7.13;;
4047;SDS011;2038;51.728;6.674;2023-12-20T08:47:39;40.43;;;8.33;;
4047;SDS011;2038;51.728;6.674;2023-12-20T08:50:06;21.30;;;8.93;;
4047;SDS011;2038;51.728;6.674;2023-12-20T08:52:33;21.53;;;6.57;;
4047;SDS011;2038;51.728;6.674;2023-12-20T08:55:00;26.60;;;6.37;;
4047;SDS011;2038;51.728;6.674;2023-12-20T08:57:26;24.70;;;7.50;;
4047;SDS011;2038;51.728;6.674;2023-12-20T08:59:53;16.93;;;5.60;;
4047;SDS011;2038;51.728;6.674;2023-12-20T09:02:19;27.80;;;7.50;;
4047;SDS011;2038;51.728;6.674;2023-12-20T09:04:45;24.83;;;6.70;;
4047;SDS011;2038;51.728;6.674;2023-12-20T09:07:24;27.23;;;6.80;;
4047;SDS011;2038;51.728;6.674;2023-12-20T09:09:52;19.17;;;6.87;;
4047;SDS011;2038;51.728;6.674;2023-12-20T09:12:19;12.90;;;5.50;;
4047;SDS011;2038;51.728;6.674;2023-12-20T09:14:46;22.73;;;6.10;;
4047;SDS011;2038;51.728;6.674;2023-12-20T09:17:14;22.43;;;7.60;;
4047;SDS011;2038;51.728;6.674;2023-12-20T09:19:42;15.40;;;6.27;;
4047;SDS011;2038;51.728;6.674;2023-12-20T09:22:09;22.03;;;7.53;;
4047;SDS011;2038;51.728;6.674;2023-12-20T09:24:36;15.80;;;6.60;;
4047;SDS011;2038;51.728;6.674;2023-12-20T09:27:03;18.13;;;6.23;;
4047;SDS011;2038;51.728;6.674;2023-12-20T09:29:30;18.23;;;5.87;;
4047;SDS011;2038;51.728;6.674;2023-12-20T09:31:57;24.13;;;6.30;;
4047;SDS011;2038;51.728;6.674;2023-12-20T09:34:24;20.37;;;5.30;;
4047;SDS011;2038;51.728;6.674;2023-12-20T09:36:54;15.33;;;4.70;;
4047;SDS011;2038;51.728;6.674;2023-12-20T09:39:20;21.70;;;6.37;;
4047;SDS011;2038;51.728;6.674;2023-12-20T09:44:30;18.80;;;5.70;;
4047;SDS011;2038;51.728;6.674;2023-12-20T09:46:59;13.93;;;4.17;;
4047;SDS011;2038;51.728;6.674;2023-12-20T09:49:29;24.97;;;6.33;;
4047;SDS011;2038;51.728;6.674;2023-12-20T09:51:57;27.87;;;6.70;;
4047;SDS011;2038;51.728;6.674;2023-12-20T09:54:25;22.83;;;5.70;;
4047;SDS011;2038;51.728;6.674;2023-12-20T09:56:54;14.87;;;5.10;;
4047;SDS011;2038;51.728;6.674;2023-12-20T09:59:20;26.67;;;5.03;;
4047;SDS011;2038;51.728;6.674;2023-12-20T10:01:47;16.60;;;5.33;;
4047;SDS011;2038;51.728;6.674;2023-12-20T10:04:20;21.30;;;6.40;;
4047;SDS011;2038;51.728;6.674;2023-12-20T10:06:46;17.80;;;8.13;;
4047;SDS011;2038;51.728;6.674;2023-12-20T10:09:13;28.70;;;5.47;;
4047;SDS011;2038;51.728;6.674;2023-12-20T10:11:39;10.50;;;5.30;;
4047;SDS011;2038;51.728;6.674;2023-12-20T10:14:06;19.10;;;4.97;;
4047;SDS011;2038;51.728;6.674;2023-12-20T10:16:33;26.20;;;5.70;;
4047;SDS011;2038;51.728;6.674;2023-12-20T10:19:00;31.90;;;6.20;;
4047;SDS011;2038;51.728;6.674;2023-12-20T10:21:26;28.30;;;7.10;;
4047;SDS011;2038;51.728;6.674;2023-12-20T10:23:54;14.20;;;5.90;;
4047;SDS011;2038;51.728;6.674;2023-12-20T10:26:25;25.90;;;6.60;;
4047;SDS011;2038;51.728;6.674;2023-12-20T10:28:55;23.87;;;7.50;;
4047;SDS011;2038;51.728;6.674;2023-12-20T10:31:27;25.17;;;5.00;;
4047;SDS011;2038;51.728;6.674;2023-12-20T10:33:56;26.93;;;6.20;;
4047;SDS011;2038;51.728;6.674;2023-12-20T10:36:25;23.60;;;7.80;;
4047;SDS011;2038;51.728;6.674;2023-12-20T10:38:53;17.40;;;5.60;;
4047;SDS011;2038;51.728;6.674;2023-12-20T10:41:26;23.90;;;7.13;;
4047;SDS011;2038;51.728;6.674;2023-12-20T10:43:56;15.33;;;6.60;;
4047;SDS011;2038;51.728;6.674;2023-12-20T10:46:26;21.73;;;7.60;;
4047;SDS011;2038;51.728;6.674;2023-12-20T10:48:57;31.77;;;7.30;;
4047;SDS011;2038;51.728;6.674;2023-12-20T10:51:26;20.67;;;7.63;;
4047;SDS011;2038;51.728;6.674;2023-12-20T10:53:55;19.20;;;7.17;;
4047;SDS011;2038;51.728;6.674;2023-12-20T10:56:22;20.23;;;7.73;;
4047;SDS011;2038;51.728;6.674;2023-12-20T10:58:49;17.93;;;8.33;;
4047;SDS011;2038;51.728;6.674;2023-12-20T11:01:16;23.53;;;9.37;;
4047;SDS011;2038;51.728;6.674;2023-12-20T11:03:51;29.43;;;7.63;;
4047;SDS011;2038;51.728;6.674;2023-12-20T11:09:25;21.80;;;6.90;;
4047;SDS011;2038;51.728;6.674;2023-12-20T11:12:13;20.10;;;7.03;;
4047;SDS011;2038;51.728;6.674;2023-12-20T11:15:14;14.83;;;7.70;;
4047;SDS011;2038;51.728;6.674;2023-12-20T11:17:42;21.23;;;7.47;;
4047;SDS011;2038;51.728;6.674;2023-12-20T11:20:13;21.33;;;8.30;;
4047;SDS011;2038;51.728;6.674;2023-12-20T11:22:40;32.90;;;9.80;;
4047;SDS011;2038;51.728;6.674;2023-12-20T11:25:19;20.17;;;8.23;;
4047;SDS011;2038;51.728;6.674;2023-12-20T11:28:06;33.30;;;8.13;;
4047;SDS011;2038;51.728;6.674;2023-12-20T11:33:14;20.50;;;7.10;;
4047;SDS011;2038;51.728;6.674;2023-12-20T11:35:41;21.27;;;7.27;;
4047;SDS011;2038;51.728;6.674;2023-12-20T11:38:10;18.50;;;9.10;;
4047;SDS011;2038;51.728;6.674;2023-12-20T11:40:38;22.67;;;6.60;;
4047;SDS011;2038;51.728;6.674;2023-12-20T11:43:06;17.30;;;8.33;;
4047;SDS011;2038;51.728;6.674;2023-12-20T11:45:33;20.93;;;8.30;;
4047;SDS011;2038;51.728;6.674;2023-12-20T11:48:00;34.60;;;9.77;;
4047;SDS011;2038;51.728;6.674;2023-12-20T11:50:28;31.97;;;8.90;;
4047;SDS011;2038;51.728;6.674;2023-12-20T11:52:55;18.10;;;7.20;;
4047;SDS011;2038;51.728;6.674;2023-12-20T11:55:22;23.40;;;7.30;;
4047;SDS011;2038;51.728;6.674;2023-12-20T11:57:49;33.40;;;8.03;;
4047;SDS011;2038;51.728;6.674;2023-12-20T12:00:17;21.20;;;6.70;;
4047;SDS011;2038;51.728;6.674;2023-12-20T12:02:54;31.83;;;7.70;;
4047;SDS011;2038;51.728;6.674;2023-12-20T12:05:22;21.73;;;7.50;;
4047;SDS011;2038;51.728;6.674;2023-12-20T12:07:49;19.33;;;7.97;;
4047;SDS011;2038;51.728;6.674;2023-12-20T12:10:15;17.73;;;6.93;;
4047;SDS011;2038;51.728;6.674;2023-12-20T12:12:41;24.70;;;7.43;;
4047;SDS011;2038;51.728;6.674;2023-12-20T12:15:08;22.13;;;7.80;;
4047;SDS011;2038;51.728;6.674;2023-12-20T12:17:35;23.70;;;7.43;;
4047;SDS011;2038;51.728;6.674;2023-12-20T12:20:02;16.43;;;7.03;;
4047;SDS011;2038;51.728;6.674;2023-12-20T12:22:30;16.73;;;7.23;;
4047;SDS011;2038;51.728;6.674;2023-12-20T12:24:58;14.53;;;6.57;;
4047;SDS011;2038;51.728;6.674;2023-12-20T12:27:35;27.80;;;6.87;;
4047;SDS011;2038;51.728;6.674;2023-12-20T12:30:03;18.03;;;8.70;;
4047;SDS011;2038;51.728;6.674;2023-12-20T12:32:34;16.03;;;7.37;;
4047;SDS011;2038;51.728;6.674;2023-12-20T12:35:04;29.20;;;8.30;;
4047;SDS011;2038;51.728;6.674;2023-12-20T12:37:33;25.37;;;7.70;;
4047;SDS011;2038;51.728;6.674;2023-12-20T12:40:07;18.00;;;6.63;;
4047;SDS011;2038;51.728;6.674;2023-12-20T12:42:37;21.70;;;7.43;;
4047;SDS011;2038;51.728;6.674;2023-12-20T12:45:04;21.60;;;8.10;;
4047;SDS011;2038;51.728;6.674;2023-12-20T12:47:31;22.27;;;8.47;;
4047;SDS011;2038;51.728;6.674;2023-12-20T12:49:58;32.00;;;6.90;;
4047;SDS011;2038;51.728;6.674;2023-12-20T12:52:25;16.90;;;7.30;;
4047;SDS011;2038;51.728;6.674;2023-12-20T12:54:52;27.33;;;7.70;;
4047;SDS011;2038;51.728;6.674;2023-12-20T12:57:19;29.90;;;8.67;;
4047;SDS011;2038;51.728;6.674;2023-12-20T12:59:45;19.23;;;7.40;;
4047;SDS011;2038;51.728;6.674;2023-12-20T13:02:12;39.70;;;8.43;;
4047;SDS011;2038;51.728;6.674;2023-12-20T13:04:39;23.50;;;7.20;;
4047;SDS011;2038;51.728;6.674;2023-12-20T13:07:07;20.83;;;7.77;;
4047;SDS011;2038;51.728;6.674;2023-12-20T13:09:37;28.20;;;8.97;;
4047;SDS011;2038;51.728;6.674;2023-12-20T13:12:08;21.23;;;8.00;;
4047;SDS011;2038;51.728;6.674;2023-12-20T13:14:35;18.47;;;9.83;;
4047;SDS011;2038;51.728;6.674;2023-12-20T13:17:04;17.70;;;8.27;;
4047;SDS011;2038;51.728;6.674;2023-12-20T13:19:31;38.17;;;8.17;;
4047;SDS011;2038;51.728;6.674;2023-12-20T13:21:57;16.50;;;7.70;;
4047;SDS011;2038;51.728;6.674;2023-12-20T13:24:24;23.43;;;8.77;;
4047;SDS011;2038;51.728;6.674;2023-12-20T13:26:50;15.33;;;7.83;;
4047;SDS011;2038;51.728;6.674;2023-12-20T13:29:17;28.17;;;8.47;;
4047;SDS011;2038;51.728;6.674;2023-12-20T13:31:43;20.07;;;8.60;;
4047;SDS011;2038;51.728;6.674;2023-12-20T13:34:09;25.17;;;9.10;;
4047;SDS011;2038;51.728;6.674;2023-12-20T13:36:36;18.00;;;7.80;;
4047;SDS011;2038;51.728;6.674;2023-12-20T13:39:03;25.43;;;8.77;;
4047;SDS011;2038;51.728;6.674;2023-12-20T13:41:30;25.23;;;9.10;;
4047;SDS011;2038;51.728;6.674;2023-12-20T13:43:56;33.33;;;7.87;;
4047;SDS011;2038;51.728;6.674;2023-12-20T13:46:23;20.17;;;9.27;;
4047;SDS011;2038;51.728;6.674;2023-12-20T13:48:49;22.27;;;8.87;;
4047;SDS011;2038;51.728;6.674;2023-12-20T13:51:16;23.93;;;9.50;;
4047;SDS011;2038;51.728;6.674;2023-12-20T13:53:43;25.10;;;9.47;;
4047;SDS011;2038;51.728;6.674;2023-12-20T13:56:09;22.53;;;10.00;;
4047;SDS011;2038;51.728;6.674;2023-12-20T13:58:35;24.10;;;10.23;;
4047;SDS011;2038;51.728;6.674;2023-12-20T14:01:02;18.90;;;8.70;;
4047;SDS011;2038;51.728;6.674;2023-12-20T14:03:28;17.57;;;9.83;;
4047;SDS011;2038;51.728;6.674;2023-12-20T14:05:56;26.90;;;11.10;;
4047;SDS011;2038;51.728;6.674;2023-12-20T14:08:22;23.73;;;9.90;;
4047;SDS011;2038;51.728;6.674;2023-12-20T14:10:49;25.67;;;10.17;;
4047;SDS011;2038;51.728;6.674;2023-12-20T14:13:15;18.10;;;8.83;;
4047;SDS011;2038;51.728;6.674;2023-12-20T14:15:41;22.03;;;10.43;;
4047;SDS011;2038;51.728;6.674;2023-12-20T14:18:08;26.60;;;10.27;;
4047;SDS011;2038;51.728;6.674;2023-12-20T14:20:35;21.13;;;10.30;;
4047;SDS011;2038;51.728;6.674;2023-12-20T14:23:02;20.93;;;9.87;;
4047;SDS011;2038;51.728;6.674;2023-12-20T14:25:28;32.33;;;11.10;;
4047;SDS011;2038;51.728;6.674;2023-12-20T14:27:56;30.53;;;11.33;;
4047;SDS011;2038;51.728;6.674;2023-12-20T14:30:22;24.80;;;11.23;;
4047;SDS011;2038;51.728;6.674;2023-12-20T14:32:49;18.43;;;12.07;;
4047;SDS011;2038;51.728;6.674;2023-12-20T14:35:15;21.70;;;10.50;;
4047;SDS011;2038;51.728;6.674;2023-12-20T14:37:42;18.20;;;10.90;;
4047;SDS011;2038;51.728;6.674;2023-12-20T14:40:08;23.00;;;9.90;;
4047;SDS011;2038;51.728;6.674;2023-12-20T14:42:40;39.10;;;11.27;;
4047;SDS011;2038;51.728;6.674;2023-12-20T14:45:08;20.00;;;10.17;;
4047;SDS011;2038;51.728;6.674;2023-12-20T14:47:35;26.70;;;12.80;;
4047;SDS011;2038;51.728;6.674;2023-12-20T14:50:05;26.97;;;11.23;;
4047;SDS011;2038;51.728;6.674;2023-12-20T14:52:32;27.77;;;10.80;;
4047;SDS011;2038;51.728;6.674;2023-12-20T14:54:59;21.67;;;11.03;;
4047;SDS011;2038;51.728;6.674;2023-12-20T14:57:29;37.07;;;12.73;;
4047;SDS011;2038;51.728;6.674;2023-12-20T14:59:56;21.17;;;11.03;;
4047;SDS011;2038;51.728;6.674;2023-12-20T15:02:23;22.70;;;11.50;;
4047;SDS011;2038;51.728;6.674;2023-12-20T15:04:49;23.93;;;11.77;;
4047;SDS011;2038;51.728;6.674;2023-12-20T15:07:16;24.77;;;11.83;;
4047;SDS011;2038;51.728;6.674;2023-12-20T15:09:43;31.70;;;13.83;;